To NAV CANADA Home Page Login to a new session Search on AWWS site Feedback and Comments Disclaimer Vers la page française équivalente Tips FAQ What's new on the site To the Forecasts and Observations / NOTAM section To "File a Flight Plan" website Publications and other links Update of the User's profile FIC Telephone Numbers My Weather Data Folder Route Weather Data Regional Weather Data Local Weather Data To the Forecasts and Observations / NOTAM section
Request Generated 05/04/2016 at 15:33:09 UTC . Weather information available at that time is displayed.

METAR/TAF

LLOYDMINSTER/AB    (show WxCam)

METAR CYLL 041500Z 25007KT 15SM FEW250 18/07 A2977 RMK CI1 SLP083
DENSITY ALT 3200FT=
METAR CYLL 041400Z 21006KT 15SM FEW250 16/06 A2977 RMK CI1 SLP083
DENSITY ALT 2900FT=
METAR CYLL 041300Z 23003KT 190V320 15SM FEW250 12/05 A2979 RMK CI1
SLP088 DENSITY ALT 2500FT=

TAF CYLL 041140Z 0412/0424 19008KT P6SM SKC
FM041500 22008KT P6SM SKC
BECMG 0416/0418 28015G25KT
RMK FCST BASED ON AUTO OBS. NXT FCST BY 041800Z=
Your time UTC time
Weather data provided by Environment Canada and NAV CANADA